• Join FlightAware (Why Join?)
  • Login
  • US Flag 
07:12AM EDT


 

Airport Tracker/Info


-or-


 

Live Flight TrackerFlight Track Log ✈ AWE3327 ✈ 07-May-2013 ✈ KBUF - KDCA

Flight Track Log - Related Links

Times and Time Zones

All times are in EDT time to prevent confusion due to time zone crossing. See the AWE3327 flight status page for this flight to view local times or setup timezone preferences in your user account.

Time Position Orientation Groundspeed Altitude Reporting Facility
EDT Latitude Longitude Course Direction KTS MPH feet Rate Location/Type
05:41AM 42.9500 -78.7167 152° Southeast 152 175 1,700  Level Buffalo TRACON
05:43AM 42.8547 -78.6489 152° Southeast 270 311 8,000 2,640 Climbing Cleveland Center
05:44AM 42.7711 -78.6458 178° South 275 316 11,100 2,940 Climbing Cleveland Center
05:45AM 42.6878 -78.6397 177° South 282 325 13,900 2,580 Climbing Cleveland Center
05:46AM 42.6017 -78.6086 165° South 305 351 16,300 2,220 Climbing Cleveland Center
05:47AM 42.5114 -78.5719 163° South 319 367 18,400 2,160 Climbing Cleveland Center
05:48AM 42.4256 -78.5411 165° South 349 402 20,700 1,980 Climbing Cleveland Center
05:49AM 42.3289 -78.5047 164° South 354 407 22,400 1,140 Climbing Cleveland Center
05:50AM 42.2303 -78.4689 165° South 364 419 23,000 300 Climbing Cleveland Center
05:51AM 42.1256 -78.4331 166° South 375 432 23,000  Level Cleveland Center
05:52AM 42.0267 -78.3944 164° South 375 432 23,000  Level Cleveland Center
05:53AM 41.9281 -78.3586 165° South 375 432 23,000  Level Cleveland Center
05:54AM 41.8272 -78.3203 164° South 375 432 23,000  Level Cleveland Center
05:55AM 41.7264 -78.2850 165° South 375 432 23,000  Level Cleveland Center
05:56AM 41.6111 -78.2458 166° South 373 429 23,000  Level New York Center
05:57AM 41.5136 -78.2072 163° South 373 429 23,000  Level New York Center
05:58AM 41.4136 -78.1742 166° South 373 429 23,000  Level New York Center
05:59AM 41.3158 -78.1358 164° South 373 429 23,000  Level New York Center
06:00AM 41.2181 -78.1003 165° South 373 429 23,000  Level New York Center
06:01AM 41.1200 -78.0675 166° South 373 429 23,000  Level New York Center
06:02AM 41.0200 -78.0322 165° South 373 429 23,000 -180 Level New York Center
06:03AM 40.9244 -77.9917 162° South 373 429 22,700 -720 Descending New York Center
06:04AM 40.8389 -77.9250 149° Southeast 368 423 21,600 -1,080 Descending New York Center
06:05AM 40.7556 -77.8561 148° Southeast 358 412 20,600 -1,080 Descending New York Center
06:06AM 40.6697 -77.7925 151° Southeast 358 412 19,500 -1,140 Descending New York Center
06:07AM 40.5881 -77.7267 149° Southeast 358 412 18,400 -780 Descending New York Center
06:08AM 40.5042 -77.6636 150° Southeast 358 412 18,000 -240 Descending New York Center
06:09AM 40.4222 -77.6036 151° Southeast 353 406 18,000  Level New York Center
06:10AM 40.3464 -77.5442 149° Southeast 353 406 18,000  Level New York Center
06:11AM 40.2725 -77.4881 150° Southeast 348 400 18,000  Level New York Center
06:12AM 40.1828 -77.4169 149° Southeast 342 394 18,000  Level New York Center
06:13AM 40.1128 -77.3639 150° Southeast 332 382 18,000  Level New York Center
06:14AM 40.0367 -77.3081 151° Southeast 326 375 18,000  Level New York Center
06:15AM 39.9444 -77.2397 150° Southeast 321 369 18,000  Level New York Center
06:16AM 39.8767 -77.1847 148° Southeast 321 369 18,000 -240 Level New York Center
06:17AM 39.7925 -77.1203 150° Southeast 316 364 17,600 -720 Descending New York Center
06:19AM 39.6667 -77.0333 152° Southeast 309 356 16,300 -900 Descending Potomac TRACON
06:20AM 39.6167 -76.9667 134° Southeast 300 345 15,400 -1,260 Descending Potomac TRACON
06:21AM 39.5500 -76.9333 159° South 295 339 14,100 -1,680 Descending Potomac TRACON
06:22AM 39.4833 -76.8833 150° Southeast 286 329 12,300 -1,140 Descending Potomac TRACON
06:23AM 39.4167 -76.8333 150° Southeast 282 325 12,000 -180 Descending Potomac TRACON
06:24AM 39.3500 -76.7833 150° Southeast 281 323 12,000  Level Potomac TRACON
06:24AM 39.2833 -76.7500 159° South 284 327 12,000 -600 Level Potomac TRACON
06:26AM 39.2167 -76.7000 150° Southeast 283 326 10,800 -960 Descending Potomac TRACON
06:27AM 39.1500 -76.7000 180° South 287 330 10,000 -420 Descending Potomac TRACON
06:28AM 39.0833 -76.7667 218° Southwest 287 330 10,000 -720 Level Potomac TRACON
06:28AM 39.0333 -76.8333 226° Southwest 284 327 8,700 -1,800 Descending Potomac TRACON
06:29AM 38.9667 -76.9000 218° Southwest 277 319 6,600 -1,380 Descending Potomac TRACON
06:30AM 38.9167 -76.9333 207° Southwest 234 269 6,000 -360 Descending Potomac TRACON
06:31AM 38.8667 -76.9500 195° South 222 255 6,000 -720 Level Potomac TRACON
06:32AM 38.8000 -76.9500 180° South 211 243 4,700 -1,020 Descending Potomac TRACON
06:33AM 38.7500 -76.9500 180° South 170 196 4,000 -960 Descending Potomac TRACON
06:34AM 38.7000 -76.9333 165° South 163 188 2,800 -780 Descending Potomac TRACON
06:35AM 38.6833 -76.9667 237° Southwest 204 235 2,500 -180 Descending Potomac TRACON
06:36AM 38.6833 -77.0333 270° West 222 255 2,500 -240 Level Potomac TRACON
06:37AM 38.7333 -77.0333 360° North 185 213 2,100 -420 Descending Potomac TRACON